Archival Weather

Abadan

Abadan, Iran (OIAA)

Report from: Thursday, September 21, 2023 3:00 AM UTC
Current time: Saturday, March 2, 2024 10:12 AM UTC

Current weather – Weather history – Daily summaries
Weather forecast

Temperature22.0°C (71.6°F)
Dew point8.0°C (46.4°F)
Winds Calm
Visibility4.3 mi. (7 km)
Altimeter29.68 in.Hg (1005 mB)
Relative humidity41 %
Density altitude1,249 ft. (381 m)
Flight conditions Marginal Visual Meteorological Conditions
Raw dataOIAA 210300Z 00000KT 7000 NSC 22/08 Q1005
An error has occurred. This application may no longer respond until reloaded. Reload 🗙